Time;durP1;ratioP1;P1;durP2;ratioP2;P2;SDS_P1;SDS_P2;PMS_P1;PMS_P2;Temp;Humidity;BMP_temperature;BMP_pressure;BME280_temperature;BME280_humidity;BME280_pressure;Samples;Min_cycle;Max_cycle;Signal;HPM_P1;HPM_P2
2021/03/01 00:01:49;;;;;;;19.88;11.48;;;4.00;99.90;;;;;;5017265;28;20275;-82
2021/03/01 00:04:15;;;;;;;21.15;12.18;;;3.70;99.90;;;;;;5017407;28;20212;-82
2021/03/01 00:06:47;;;;;;;22.63;12.13;;;4.30;99.90;;;;;;5017531;28;20331;-82
2021/03/01 00:09:13;;;;;;;19.30;11.15;;;4.00;99.90;;;;;;5017191;28;20573;-83
2021/03/01 00:11:39;;;;;;;21.70;11.50;;;4.00;99.90;;;;;;5017558;28;20536;-83
2021/03/01 00:14:05;;;;;;;18.33;11.85;;;4.20;99.90;;;;;;5030888;28;20215;-82
2021/03/01 00:16:31;;;;;;;20.33;12.70;;;4.30;99.90;;;;;;5028139;28;20352;-82
2021/03/01 00:18:58;;;;;;;19.60;12.35;;;4.30;99.90;;;;;;5019777;28;20204;-83
2021/03/01 00:21:24;;;;;;;24.45;13.75;;;4.30;99.90;;;;;;5018890;28;20699;-85
2021/03/01 00:23:50;;;;;;;22.73;13.40;;;4.40;99.90;;;;;;5018603;28;20200;-85
2021/03/01 00:26:17;;;;;;;21.90;13.63;;;;;;;;;;5018660;28;20232;-84
2021/03/01 00:28:44;;;;;;;20.23;13.57;;;4.40;99.90;;;;;;5018314;28;20620;-85
2021/03/01 00:31:12;;;;;;;27.42;14.43;;;4.20;99.90;;;;;;5017967;28;20208;-85
2021/03/01 00:33:38;;;;;;;24.88;14.80;;;4.20;99.90;;;;;;5019449;28;20218;-81
2021/03/01 00:36:05;;;;;;;22.92;14.15;;;4.20;99.90;;;;;;5030131;28;20226;-82
2021/03/01 00:38:31;;;;;;;20.42;12.75;;;4.20;99.90;;;;;;5019168;28;20185;-80
2021/03/01 00:41:05;;;;;;;22.65;13.18;;;4.10;99.90;;;;;;5018480;28;20235;-80
2021/03/01 00:43:38;;;;;;;21.63;12.50;;;4.20;99.90;;;;;;5018730;28;20187;-83
2021/03/01 00:46:04;;;;;;;20.52;12.75;;;4.20;99.90;;;;;;5018705;28;20220;-82
2021/03/01 00:48:30;;;;;;;20.00;13.75;;;4.20;99.90;;;;;;5018260;28;20634;-81
2021/03/01 00:50:57;;;;;;;21.48;11.80;;;4.30;99.90;;;;;;5018194;28;20246;-81
2021/03/01 00:53:24;;;;;;;21.23;12.05;;;4.10;99.90;;;;;;5017790;28;20216;-81
2021/03/01 00:55:50;;;;;;;20.15;12.18;;;4.10;99.90;;;;;;5022142;28;20228;-81
2021/03/01 00:58:17;;;;;;;25.67;15.02;;;4.10;99.90;;;;;;5032351;28;20714;-80
2021/03/01 01:00:45;;;;;;;19.33;11.75;;;4.00;99.90;;;;;;5033755;28;20228;-80
2021/03/01 01:03:11;;;;;;;19.75;13.20;;;4.00;99.90;;;;;;5029832;28;20295;-80
2021/03/01 01:05:37;;;;;;;21.63;15.68;;;4.00;99.90;;;;;;5021811;28;20215;-81
2021/03/01 01:08:07;;;;;;;23.95;13.38;;;4.10;99.90;;;;;;5017665;28;20223;-81
2021/03/01 01:10:34;;;;;;;22.35;13.80;;;4.10;99.90;;;;;;5017690;28;20277;-81
2021/03/01 01:13:00;;;;;;;23.02;12.00;;;4.10;99.90;;;;;;5016174;28;20232;-81
2021/03/01 01:15:26;;;;;;;21.58;13.48;;;3.80;99.90;;;;;;5016841;28;20239;-82
2021/03/01 01:17:53;;;;;;;21.10;12.85;;;3.90;99.90;;;;;;5016767;28;20231;-81
2021/03/01 01:20:19;;;;;;;25.75;13.63;;;3.90;99.90;;;;;;5016907;28;20674;-80
2021/03/01 01:22:45;;;;;;;20.42;12.80;;;3.80;99.90;;;;;;5020576;28;20201;-81
2021/03/01 01:25:14;;;;;;;22.27;12.98;;;3.90;99.90;;;;;;5025639;28;20211;-80
2021/03/01 01:27:41;;;;;;;23.23;13.38;;;3.90;99.90;;;;;;5019894;28;20235;-80
2021/03/01 01:30:09;;;;;;;21.10;12.63;;;3.90;99.90;;;;;;5018318;28;20212;-80
2021/03/01 01:32:36;;;;;;;19.35;13.20;;;3.80;99.90;;;;;;5017549;28;20277;-81
2021/03/01 01:35:02;;;;;;;24.52;12.32;;;3.80;99.90;;;;;;5017018;28;20209;-81
2021/03/01 01:37:28;;;;;;;21.30;12.30;;;3.80;99.90;;;;;;5019630;28;20236;-80
2021/03/01 01:39:54;;;;;;;21.90;12.63;;;3.80;99.90;;;;;;5023875;28;20200;-80
2021/03/01 01:42:20;;;;;;;25.45;14.20;;;3.80;99.90;;;;;;5025112;28;20704;-80
2021/03/01 01:44:47;;;;;;;26.40;13.43;;;3.80;99.90;;;;;;5022272;28;20208;-81
2021/03/01 01:47:13;;;;;;;23.33;14.35;;;3.80;99.90;;;;;;5021028;28;20258;-80
2021/03/01 01:49:39;;;;;;;21.13;12.57;;;3.80;99.90;;;;;;5020712;28;20262;-81
2021/03/01 01:52:05;;;;;;;23.30;12.88;;;3.80;99.90;;;;;;5018047;28;20548;-81
2021/03/01 01:54:32;;;;;;;22.50;13.02;;;3.80;99.90;;;;;;5017667;28;20200;-80
2021/03/01 01:57:00;;;;;;;23.30;13.52;;;3.80;99.90;;;;;;5016794;28;20235;-81
2021/03/01 01:59:26;;;;;;;25.27;12.73;;;3.80;99.90;;;;;;5016545;28;20701;-80
2021/03/01 02:01:54;;;;;;;26.58;13.32;;;3.80;99.90;;;;;;5018869;28;20212;-80
2021/03/01 02:04:24;;;;;;;22.00;13.75;;;3.80;99.90;;;;;;5017354;28;20201;-81
2021/03/01 02:07:00;;;;;;;22.73;13.55;;;3.80;99.90;;;;;;5016467;28;20220;-81
2021/03/01 02:09:32;;;;;;;28.30;13.07;;;3.90;99.90;;;;;;5015932;28;20216;-81
2021/03/01 02:12:12;;;;;;;26.73;13.35;;;3.90;99.90;;;;;;5016229;28;20204;-81
2021/03/01 02:15:02;;;;;;;21.17;13.73;;;3.90;99.90;;;;;;5017600;28;20227;-80
2021/03/01 02:17:29;;;;;;;28.77;12.90;;;3.90;99.90;;;;;;5020318;28;20294;-81
2021/03/01 02:19:55;;;;;;;28.08;15.18;;;3.90;99.90;;;;;;5019637;28;20214;-81
2021/03/01 02:22:22;;;;;;;25.05;13.75;;;3.90;99.90;;;;;;5017159;28;20204;-82
2021/03/01 02:24:52;;;;;;;19.65;14.43;;;3.90;99.90;;;;;;5017603;28;20244;-82
2021/03/01 02:27:21;;;;;;;22.77;12.95;;;3.90;99.90;;;;;;5015906;28;20765;-81
2021/03/01 02:29:50;;;;;;;25.13;12.18;;;3.80;99.90;;;;;;5016602;28;20251;-81
2021/03/01 02:32:17;;;;;;;23.77;12.68;;;3.80;99.90;;;;;;5017049;28;20227;-81
2021/03/01 02:34:43;;;;;;;26.35;13.13;;;3.90;99.90;;;;;;5019594;28;20204;-81
2021/03/01 02:37:13;;;;;;;30.85;15.32;;;3.90;99.90;;;;;;5019679;28;20593;-81
2021/03/01 02:39:43;;;;;;;24.98;14.50;;;3.90;99.90;;;;;;5019991;28;20567;-80
2021/03/01 02:42:12;;;;;;;21.55;12.65;;;3.80;99.90;;;;;;5019812;28;20207;-81
2021/03/01 02:44:39;;;;;;;23.85;13.05;;;3.90;99.90;;;;;;5020382;28;20324;-82
2021/03/01 02:47:05;;;;;;;21.30;12.40;;;3.90;99.90;;;;;;5019858;28;20224;-82
2021/03/01 02:49:33;;;;;;;27.15;12.60;;;4.00;99.90;;;;;;5019561;28;20251;-81
2021/03/01 02:52:00;;;;;;;20.23;11.85;;;4.10;99.90;;;;;;5019478;28;20592;-83
2021/03/01 02:54:28;;;;;;;24.88;13.98;;;4.00;99.90;;;;;;5019474;28;20683;-80
2021/03/01 02:56:57;;;;;;;24.45;12.20;;;4.00;99.90;;;;;;5019500;28;20220;-80
2021/03/01 02:59:25;;;;;;;21.88;12.10;;;4.00;99.90;;;;;;5019327;28;20208;-80
2021/03/01 03:01:52;;;;;;;21.15;12.40;;;4.00;99.90;;;;;;5020054;28;20201;-80
2021/03/01 03:04:20;;;;;;;19.38;11.40;;;4.10;99.90;;;;;;5032136;28;20235;-81
2021/03/01 03:06:48;;;;;;;22.67;12.18;;;4.20;99.90;;;;;;5025386;28;20660;-81
2021/03/01 03:09:15;;;;;;;16.88;10.98;;;4.20;99.90;;;;;;5019356;28;20223;-80
2021/03/01 03:11:43;;;;;;;21.50;11.18;;;4.20;99.90;;;;;;5019080;28;20260;-81
2021/03/01 03:14:13;;;;;;;19.33;12.82;;;4.30;99.90;;;;;;5019065;28;20639;-81
2021/03/01 03:16:40;;;;;;;24.15;12.63;;;4.40;99.90;;;;;;5019463;28;20236;-81
2021/03/01 03:19:06;;;;;;;20.00;12.30;;;4.40;99.90;;;;;;5019012;28;20801;-81
2021/03/01 03:21:33;;;;;;;21.20;12.93;;;4.40;99.90;;;;;;5019720;28;20560;-81
2021/03/01 03:23:59;;;;;;;25.55;12.80;;;4.40;99.90;;;;;;5019085;28;20243;-81
2021/03/01 03:26:25;;;;;;;19.17;11.48;;;4.30;99.90;;;;;;5018630;28;20235;-80
2021/03/01 03:28:51;;;;;;;25.30;13.15;;;4.10;99.90;;;;;;5019057;28;20211;-80
2021/03/01 03:31:18;;;;;;;24.63;12.38;;;4.20;99.90;;;;;;5019037;28;20212;-81
2021/03/01 03:33:44;;;;;;;25.02;14.15;;;4.20;99.90;;;;;;5018628;28;20270;-81
2021/03/01 03:36:12;;;;;;;23.48;14.20;;;4.30;99.90;;;;;;5018438;28;20623;-81
2021/03/01 03:38:43;;;;;;;26.27;13.85;;;4.00;99.90;;;;;;5018695;28;20195;-81
2021/03/01 03:41:12;;;;;;;25.52;16.00;;;4.10;99.90;;;;;;5018626;28;20184;-82
2021/03/01 03:43:41;;;;;;;23.77;13.23;;;4.10;99.90;;;;;;5018589;28;20196;-81
2021/03/01 03:46:09;;;;;;;21.73;13.35;;;4.00;99.90;;;;;;5020617;28;20690;-83
2021/03/01 03:48:37;;;;;;;25.75;13.15;;;4.00;99.90;;;;;;5019464;28;20208;-81
2021/03/01 03:51:07;;;;;;;24.00;13.00;;;4.10;99.90;;;;;;5018927;28;20211;-82
2021/03/01 03:53:39;;;;;;;24.77;12.43;;;4.10;99.90;;;;;;5019170;28;20263;-82
2021/03/01 03:56:07;;;;;;;23.30;13.38;;;4.20;99.90;;;;;;5018481;28;20255;-81
2021/03/01 03:58:39;;;;;;;21.08;13.07;;;4.20;99.90;;;;;;5017566;28;20236;-81
2021/03/01 04:01:07;;;;;;;23.33;13.02;;;4.20;99.90;;;;;;5024034;28;20243;-82
2021/03/01 04:03:37;;;;;;;25.48;13.93;;;4.30;99.90;;;;;;5035146;28;20197;-81
2021/03/01 04:06:03;;;;;;;22.27;12.50;;;4.70;99.90;;;;;;5048273;22;20239;-78
2021/03/01 04:08:31;;;;;;;21.27;12.60;;;4.40;99.90;;;;;;5044659;28;20621;-79
2021/03/01 04:10:59;;;;;;;24.17;14.18;;;4.30;99.90;;;;;;5045130;28;20549;-79
2021/03/01 04:13:27;;;;;;;22.92;13.15;;;4.20;99.90;;;;;;5043581;28;20252;-79
2021/03/01 04:15:53;;;;;;;25.92;15.30;;;4.10;99.90;;;;;;5044134;28;20682;-78
2021/03/01 04:18:23;;;;;;;24.15;13.77;;;4.10;99.90;;;;;;5036538;28;20211;-78
2021/03/01 04:20:51;;;;;;;25.70;14.52;;;4.10;99.90;;;;;;5035874;28;20281;-79
2021/03/01 04:23:18;;;;;;;26.55;14.55;;;4.20;99.90;;;;;;5036184;28;20207;-77
2021/03/01 04:25:45;;;;;;;21.95;13.48;;;4.50;99.90;;;;;;5035836;28;20239;-78
2021/03/01 04:28:13;;;;;;;24.13;14.35;;;4.20;99.90;;;;;;5035457;28;20922;-77
2021/03/01 04:30:39;;;;;;;22.85;12.68;;;4.30;99.90;;;;;;5035618;28;20228;-78
2021/03/01 04:33:07;;;;;;;24.70;12.95;;;4.30;99.90;;;;;;5035447;28;20251;-78
2021/03/01 04:35:35;;;;;;;24.23;13.30;;;4.20;99.90;;;;;;5035510;28;20214;-78
2021/03/01 04:38:02;;;;;;;21.10;13.07;;;4.20;99.90;;;;;;5035797;28;20262;-78
2021/03/01 04:40:28;;;;;;;25.75;14.35;;;4.20;99.90;;;;;;5036068;28;20239;-79
2021/03/01 04:42:55;;;;;;;24.17;14.20;;;4.10;99.90;;;;;;5045291;28;20491;-77
2021/03/01 04:45:21;;;;;;;24.58;14.68;;;4.20;99.90;;;;;;5051066;28;20439;-78
2021/03/01 04:47:49;;;;;;;20.35;12.43;;;4.30;99.90;;;;;;5050731;28;20223;-78
2021/03/01 04:50:17;;;;;;;25.45;13.07;;;4.20;99.90;;;;;;5045212;28;20208;-78
2021/03/01 04:52:44;;;;;;;25.40;13.00;;;4.20;99.90;;;;;;5036456;28;20710;-78
2021/03/01 04:55:12;;;;;;;26.02;15.23;;;4.10;99.90;;;;;;5040668;28;20200;-78
2021/03/01 04:57:39;;;;;;;25.75;12.77;;;4.20;99.90;;;;;;5047162;28;20228;-78
2021/03/01 05:00:08;;;;;;;29.55;14.65;;;4.20;99.90;;;;;;5050188;28;20211;-78
2021/03/01 05:02:35;;;;;;;25.38;14.18;;;4.10;99.90;;;;;;5049709;28;20204;-78
2021/03/01 05:05:01;;;;;;;24.05;13.60;;;4.10;99.90;;;;;;5049099;28;20659;-78
2021/03/01 05:07:28;;;;;;;25.75;13.30;;;4.10;99.90;;;;;;5040313;28;20231;-79
2021/03/01 05:09:55;;;;;;;24.88;14.18;;;4.20;99.90;;;;;;5048688;28;20231;-79
2021/03/01 05:12:22;;;;;;;28.70;13.27;;;4.30;99.90;;;;;;5043450;28;20247;-78
2021/03/01 05:14:48;;;;;;;26.42;13.60;;;4.30;99.90;;;;;;5036806;28;20204;-79
2021/03/01 05:17:14;;;;;;;20.20;13.20;;;4.20;99.90;;;;;;5036092;28;20231;-79
2021/03/01 05:19:40;;;;;;;24.20;12.93;;;4.20;99.90;;;;;;5039264;28;20204;-79
2021/03/01 05:22:07;;;;;;;30.00;15.68;;;4.20;99.90;;;;;;5039752;28;20233;-79
2021/03/01 05:24:33;;;;;;;19.25;12.95;;;4.30;99.90;;;;;;5040472;28;20204;-79
2021/03/01 05:27:00;;;;;;;22.58;12.77;;;4.60;99.90;;;;;;5041199;28;20228;-79
2021/03/01 05:29:28;;;;;;;27.63;13.77;;;4.20;99.90;;;;;;5040064;28;20215;-79
2021/03/01 05:31:54;;;;;;;23.65;14.20;;;4.40;99.90;;;;;;5039094;28;20238;-79
2021/03/01 05:34:20;;;;;;;22.35;14.15;;;4.30;99.90;;;;;;5037590;28;20207;-78
2021/03/01 05:36:46;;;;;;;25.63;13.15;;;4.20;99.90;;;;;;5040586;28;20586;-77
2021/03/01 05:39:12;;;;;;;26.17;12.30;;;4.10;99.90;;;;;;5041250;28;20203;-78
2021/03/01 05:41:40;;;;;;;22.15;12.80;;;4.00;99.90;;;;;;5045817;28;20211;-78
2021/03/01 05:44:06;;;;;;;27.02;13.77;;;4.10;99.90;;;;;;5042379;28;20203;-78
2021/03/01 05:46:35;;;;;;;29.60;14.90;;;4.00;99.90;;;;;;5043746;28;20326;-78
2021/03/01 05:49:02;;;;;;;19.80;12.70;;;3.90;99.90;;;;;;5043087;28;20211;-78
2021/03/01 05:51:30;;;;;;;27.23;14.60;;;3.90;99.90;;;;;;5038318;28;20207;-79
2021/03/01 05:54:00;;;;;;;20.33;13.00;;;3.90;99.90;;;;;;5036500;28;20238;-79
2021/03/01 05:56:26;;;;;;;20.88;13.02;;;3.80;99.90;;;;;;5040750;28;20224;-78
2021/03/01 05:58:53;;;;;;;24.10;13.18;;;3.90;99.90;;;;;;5042870;28;20211;-78
2021/03/01 06:01:20;;;;;;;27.80;14.27;;;3.80;99.90;;;;;;5035163;28;20203;-79
2021/03/01 06:03:47;;;;;;;20.90;13.32;;;3.80;99.90;;;;;;5035509;28;20234;-78
2021/03/01 06:06:13;;;;;;;24.17;13.10;;;3.80;99.90;;;;;;5037637;28;20235;-78
2021/03/01 06:08:39;;;;;;;26.13;12.70;;;3.80;99.90;;;;;;5053713;28;20196;-78
2021/03/01 06:11:07;;;;;;;27.15;13.85;;;3.90;99.90;;;;;;5055411;28;20306;-79
2021/03/01 06:13:33;;;;;;;27.40;13.98;;;3.80;99.90;;;;;;5040018;28;20223;-79
2021/03/01 06:16:01;;;;;;;25.75;13.57;;;4.00;99.90;;;;;;5039277;28;20282;-78
2021/03/01 06:18:27;;;;;;;24.80;12.88;;;4.10;99.90;;;;;;5038346;28;20357;-78
2021/03/01 06:21:08;;;;;;;31.20;13.70;;;4.30;99.90;;;;;;5038786;28;20204;-78
2021/03/01 06:23:36;;;;;;;23.40;12.60;;;4.30;99.90;;;;;;5038830;28;20184;-78
2021/03/01 06:26:20;;;;;;;22.90;13.85;;;4.20;99.90;;;;;;5039256;28;20251;-78
2021/03/01 06:28:47;;;;;;;21.67;14.20;;;4.30;99.90;;;;;;5038659;28;20207;-78
2021/03/01 06:31:39;;;;;;;22.90;13.35;;;4.30;99.90;;;;;;5039245;28;20200;-78
2021/03/01 06:34:19;;;;;;;21.67;13.07;;;4.30;99.90;;;;;;5054989;28;20206;-79
2021/03/01 06:37:00;;;;;;;26.10;14.10;;;4.40;99.90;;;;;;5056062;28;20670;-79
2021/03/01 06:39:28;;;;;;;18.92;12.20;;;4.40;99.90;;;;;;5044025;28;20685;-79
2021/03/01 06:41:55;;;;;;;29.77;15.73;;;4.40;99.90;;;;;;5049608;28;20686;-79
2021/03/01 06:44:21;;;;;;;25.63;14.40;;;4.40;99.90;;;;;;5054588;28;20207;-78
2021/03/01 06:46:52;;;;;;;29.75;17.17;;;4.50;99.90;;;;;;5055708;28;20228;-79
2021/03/01 06:49:19;;;;;;;21.55;13.02;;;4.60;99.90;;;;;;5053656;28;20196;-79
2021/03/01 06:51:46;;;;;;;27.77;13.30;;;4.40;99.90;;;;;;5056873;28;20208;-79
2021/03/01 06:54:21;;;;;;;24.38;13.80;;;4.50;99.90;;;;;;5046611;28;20210;-80
2021/03/01 06:56:48;;;;;;;23.45;13.25;;;4.60;99.90;;;;;;5055046;28;20238;-80
2021/03/01 06:59:16;;;;;;;24.08;13.65;;;4.70;99.90;;;;;;5057200;28;20208;-79
2021/03/01 07:01:48;;;;;;;28.85;12.65;;;4.60;99.90;;;;;;5057738;28;20230;-79
2021/03/01 07:04:22;;;;;;;22.95;13.93;;;4.70;99.90;;;;;;5054284;28;20219;-79
2021/03/01 07:07:12;;;;;;;;;;;;;;;;;;;;;
2021/03/01 07:09:39;;;;;;;24.38;13.57;;;4.70;99.90;;;;;;5045768;28;20287;-80
2021/03/01 07:12:06;;;;;;;25.80;13.20;;;4.80;99.90;;;;;;5048747;28;20227;-80
2021/03/01 07:14:32;;;;;;;27.33;14.30;;;4.70;99.90;;;;;;5047517;28;20585;-79
2021/03/01 07:17:00;;;;;;;21.92;13.75;;;4.70;99.90;;;;;;5047894;28;20231;-80
2021/03/01 07:19:28;;;;;;;21.73;12.55;;;4.80;99.90;;;;;;5047295;28;20203;-80
2021/03/01 07:21:58;;;;;;;26.10;14.23;;;5.00;99.90;;;;;;5050659;28;20203;-80
2021/03/01 07:24:26;;;;;;;24.25;13.95;;;5.00;99.90;;;;;;5051437;28;20204;-80
2021/03/01 07:26:58;;;;;;;24.63;13.85;;;5.00;99.90;;;;;;5052866;28;20224;-80
2021/03/01 07:29:29;;;;;;;25.15;15.98;;;5.00;99.90;;;;;;5052971;28;20188;-80
2021/03/01 07:31:59;;;;;;;32.03;17.17;;;5.10;99.90;;;;;;5050130;28;20246;-81
2021/03/01 07:34:28;;;;;;;30.02;16.42;;;5.20;99.90;;;;;;5051693;28;20204;-78
2021/03/01 07:36:55;;;;;;;27.13;14.80;;;5.20;99.90;;;;;;5049491;28;20228;-78
2021/03/01 07:39:21;;;;;;;18.98;12.60;;;5.20;99.90;;;;;;5045947;28;20200;-80
2021/03/01 07:41:49;;;;;;;50.90;32.95;;;5.20;99.90;;;;;;5052159;28;20658;-79
2021/03/01 07:44:22;;;;;;;26.25;15.25;;;5.20;99.90;;;;;;5048712;28;20226;-80
2021/03/01 07:46:48;;;;;;;24.92;15.02;;;5.20;99.90;;;;;;5047983;28;20223;-79
2021/03/01 07:49:35;;;;;;;25.05;14.35;;;5.30;99.90;;;;;;5051043;28;20254;-79
2021/03/01 07:52:04;;;;;;;38.65;15.80;;;5.30;99.90;;;;;;5051135;28;20638;-80
2021/03/01 07:54:52;;;;;;;24.27;15.27;;;5.40;99.90;;;;;;5048835;28;20241;-80
2021/03/01 07:57:18;;;;;;;25.67;17.30;;;5.50;99.90;;;;;;5038406;28;20230;-78
2021/03/01 07:59:46;;;;;;;36.65;14.63;;;5.40;99.90;;;;;;5037308;28;20204;-79
2021/03/01 08:02:28;;;;;;;23.38;13.63;;;5.40;99.90;;;;;;5035037;28;20235;-80
2021/03/01 08:04:57;;;;;;;20.27;13.05;;;5.50;99.90;;;;;;5036702;28;20184;-80
2021/03/01 08:07:40;;;;;;;21.27;14.20;;;5.50;99.90;;;;;;5040194;28;20585;-79
2021/03/01 08:10:09;;;;;;;25.45;13.10;;;5.50;99.90;;;;;;5046831;28;20265;-78
2021/03/01 08:13:00;;;;;;;22.10;11.65;;;5.40;99.90;;;;;;5041884;28;20223;-78
2021/03/01 08:15:33;;;;;;;21.23;12.23;;;5.40;99.90;;;;;;5044452;28;20211;-78
2021/03/01 08:18:00;;;;;;;20.13;12.15;;;5.30;99.90;;;;;;5046712;28;20227;-78
2021/03/01 08:20:44;;;;;;;18.58;12.25;;;5.40;99.90;;;;;;5051487;28;20200;-79
2021/03/01 08:23:43;;;;;;;18.38;11.68;;;5.20;99.90;;;;;;5054872;28;20184;-79
2021/03/01 08:26:10;;;;;;;21.88;12.30;;;5.00;99.90;;;;;;5049728;28;20449;-79
2021/03/01 08:28:50;;;;;;;19.70;11.82;;;5.40;99.90;;;;;;5056716;28;20214;-79
2021/03/01 08:31:39;;;;;;;29.75;13.93;;;5.50;99.90;;;;;;5037570;28;20188;-79
2021/03/01 08:34:30;;;;;;;20.55;12.15;;;5.70;99.90;;;;;;5036431;28;20298;-77
2021/03/01 08:36:58;;;;;;;19.05;12.15;;;5.30;99.90;;;;;;5030817;28;20227;-78
2021/03/01 08:40:03;;;;;;;16.10;11.00;;;6.50;99.90;;;;;;5036313;28;20208;-78
2021/03/01 08:42:53;;;;;;;31.00;13.48;;;6.30;99.90;;;;;;5035119;28;20204;-78
2021/03/01 08:45:31;;;;;;;15.35;10.15;;;6.00;99.90;;;;;;5035966;28;20204;-78
2021/03/01 08:48:00;;;;;;;20.92;13.35;;;5.90;99.90;;;;;;5035790;28;20713;-78
2021/03/01 08:50:29;;;;;;;21.98;14.10;;;5.90;99.90;;;;;;5036095;28;20225;-78
2021/03/01 08:52:56;;;;;;;20.20;12.20;;;6.10;99.90;;;;;;5035349;28;20223;-78
2021/03/01 08:55:23;;;;;;;18.70;11.00;;;6.10;99.90;;;;;;5035483;28;20212;-79
2021/03/01 08:58:01;;;;;;;17.83;11.73;;;6.10;99.90;;;;;;5035270;28;20228;-79
2021/03/01 09:00:29;;;;;;;17.40;10.98;;;6.20;99.90;;;;;;5035192;28;20612;-80
2021/03/01 09:03:21;;;;;;;18.25;12.00;;;6.00;99.90;;;;;;5034293;28;20690;-79
2021/03/01 09:05:49;;;;;;;19.63;11.82;;;6.00;99.90;;;;;;5035407;28;20184;-79
2021/03/01 09:08:24;;;;;;;19.02;11.63;;;6.20;99.90;;;;;;5036435;28;20277;-79
2021/03/01 09:10:50;;;;;;;20.13;11.30;;;6.10;99.90;;;;;;5037207;28;20192;-79
2021/03/01 09:13:18;;;;;;;15.85;10.52;;;6.00;99.90;;;;;;5041477;28;20224;-79
2021/03/01 09:15:45;;;;;;;17.52;11.63;;;5.70;99.90;;;;;;5048332;28;20203;-77
2021/03/01 09:18:12;;;;;;;23.80;13.05;;;6.70;99.90;;;;;;5046194;28;20208;-79
2021/03/01 09:20:40;;;;;;;18.60;11.13;;;6.20;99.90;;;;;;5037531;28;20204;-78
2021/03/01 09:23:07;;;;;;;19.13;11.98;;;6.10;99.90;;;;;;5040006;28;20200;-79
2021/03/01 09:25:34;;;;;;;21.40;12.05;;;6.00;99.90;;;;;;5045284;28;20199;-78
2021/03/01 09:28:01;;;;;;;16.80;11.38;;;6.10;99.90;;;;;;5042133;28;20597;-79
2021/03/01 09:30:27;;;;;;;16.38;12.23;;;6.10;99.90;;;;;;5036217;28;20207;-79
2021/03/01 09:32:59;;;;;;;23.83;11.48;;;6.10;99.90;;;;;;5035219;28;20227;-79
2021/03/01 09:35:27;;;;;;;18.20;11.02;;;5.90;99.90;;;;;;5035957;28;20219;-79
2021/03/01 09:37:55;;;;;;;18.17;12.50;;;6.00;99.90;;;;;;5034041;28;20224;-80
2021/03/01 09:40:23;;;;;;;19.65;11.98;;;5.90;99.90;;;;;;5035793;28;20204;-80
2021/03/01 09:42:52;;;;;;;22.40;13.20;;;6.10;99.90;;;;;;5036463;28;20236;-79
2021/03/01 09:45:19;;;;;;;18.20;11.13;;;6.00;99.90;;;;;;5047248;28;20223;-79
2021/03/01 09:47:47;;;;;;;14.50;11.52;;;6.20;99.90;;;;;;5046988;28;20250;-79
2021/03/01 09:50:16;;;;;;;16.27;11.40;;;6.00;99.90;;;;;;5042655;28;20257;-79
2021/03/01 09:52:46;;;;;;;21.17;11.65;;;6.00;99.90;;;;;;5035997;28;20216;-79
2021/03/01 09:55:14;;;;;;;17.92;11.85;;;6.00;99.90;;;;;;5039309;28;20211;-79
2021/03/01 09:57:43;;;;;;;16.02;11.02;;;6.10;99.90;;;;;;5054806;28;20223;-77
2021/03/01 10:00:27;;;;;;;21.63;11.70;;;6.30;99.90;;;;;;5055367;28;20249;-79
2021/03/01 10:02:59;;;;;;;20.42;10.85;;;6.30;99.90;;;;;;5055360;28;20187;-78
2021/03/01 10:05:27;;;;;;;20.52;12.15;;;6.40;99.90;;;;;;5049048;28;20199;-79
2021/03/01 10:07:55;;;;;;;21.95;13.00;;;6.40;99.90;;;;;;5060937;22;20235;-84
2021/03/01 10:10:23;;;;;;;19.52;12.50;;;6.40;99.90;;;;;;5046839;28;20219;-82
2021/03/01 10:12:50;;;;;;;16.42;11.05;;;6.40;99.90;;;;;;5047061;28;20278;-82
2021/03/01 10:15:17;;;;;;;17.98;12.98;;;6.40;99.90;;;;;;5046333;28;20203;-83
2021/03/01 10:17:43;;;;;;;45.67;27.27;;;6.50;99.90;;;;;;5045153;28;20231;-82
2021/03/01 10:20:12;;;;;;;18.80;11.75;;;6.20;99.90;;;;;;5044057;28;20226;-82
2021/03/01 10:23:04;;;;;;;17.80;11.35;;;6.30;99.90;;;;;;5047716;28;20204;-83
2021/03/01 10:25:36;;;;;;;16.75;11.43;;;6.10;99.90;;;;;;5047611;28;20196;-83
2021/03/01 10:28:05;;;;;;;15.45;11.02;;;6.20;99.90;;;;;;5043953;28;20223;-83
2021/03/01 10:30:31;;;;;;;21.58;12.23;;;6.30;99.90;;;;;;5042781;28;20200;-84
2021/03/01 10:33:08;;;;;;;18.98;11.60;;;6.40;99.90;;;;;;5042852;28;20220;-83
2021/03/01 10:35:35;;;;;;;16.90;12.02;;;;;;;;;;5048590;28;20203;-83
2021/03/01 10:38:06;;;;;;;24.00;11.18;;;6.50;99.90;;;;;;5038957;28;20239;-83
2021/03/01 10:40:37;;;;;;;18.42;10.68;;;6.70;99.90;;;;;;5039862;28;20277;-84
2021/03/01 10:43:10;;;;;;;20.88;12.20;;;6.60;99.90;;;;;;5039110;28;20184;-83
2021/03/01 10:45:42;;;;;;;19.98;12.88;;;6.50;99.90;;;;;;5041625;28;20210;-83
2021/03/01 10:48:08;;;;;;;20.58;12.60;;;6.40;99.90;;;;;;5040362;28;20223;-84
2021/03/01 10:50:34;;;;;;;16.40;11.07;;;6.20;99.90;;;;;;5041989;28;20208;-84
2021/03/01 10:53:01;;;;;;;24.27;12.82;;;6.20;99.90;;;;;;5041243;28;20701;-83
2021/03/01 10:55:27;;;;;;;18.13;11.23;;;6.10;99.90;;;;;;5043173;28;20628;-83
2021/03/01 10:57:54;;;;;;;23.65;11.48;;;6.20;99.90;;;;;;5044420;28;20228;-83
2021/03/01 11:00:20;;;;;;;15.35;11.00;;;6.10;99.90;;;;;;5045685;28;20590;-83
2021/03/01 11:02:47;;;;;;;15.85;10.57;;;6.10;99.90;;;;;;5044150;28;20195;-83
2021/03/01 11:05:13;;;;;;;17.25;12.15;;;6.20;99.90;;;;;;5044503;28;20701;-83
2021/03/01 11:07:39;;;;;;;19.02;11.32;;;6.10;99.90;;;;;;5043635;28;20231;-83
2021/03/01 11:10:06;;;;;;;16.98;12.13;;;6.10;99.90;;;;;;5044246;28;20207;-83
2021/03/01 11:12:33;;;;;;;18.02;11.85;;;6.10;99.90;;;;;;5043356;28;20215;-82
2021/03/01 11:14:59;;;;;;;17.05;11.50;;;6.20;99.90;;;;;;5043624;28;20200;-83
2021/03/01 11:17:26;;;;;;;20.42;11.75;;;6.50;99.90;;;;;;5045047;28;20232;-83
2021/03/01 11:19:52;;;;;;;19.52;12.32;;;6.50;99.90;;;;;;5043067;28;20204;-82
2021/03/01 11:22:20;;;;;;;17.92;11.55;;;6.50;99.90;;;;;;5042892;28;20231;-82
2021/03/01 11:24:57;;;;;;;18.88;11.32;;;6.70;99.90;;;;;;5050116;28;20208;-89
2021/03/01 11:27:23;;;;;;;18.85;12.20;;;6.70;99.90;;;;;;5049988;28;20223;-91
2021/03/01 11:29:50;;;;;;;14.18;11.80;;;6.80;99.90;;;;;;5049026;28;20204;-90
2021/03/01 11:32:17;;;;;;;15.00;10.95;;;6.80;99.90;;;;;;5049990;28;20200;-90
2021/03/01 11:34:43;;;;;;;17.02;12.05;;;7.00;99.90;;;;;;5050268;28;20215;-90
2021/03/01 11:37:09;;;;;;;18.70;12.23;;;7.10;99.90;;;;;;5051389;28;20228;-83
2021/03/01 11:39:35;;;;;;;17.75;10.73;;;7.30;99.90;;;;;;5045945;28;20254;-83
2021/03/01 11:42:01;;;;;;;17.52;12.15;;;7.40;99.90;;;;;;5051275;28;20223;-83
2021/03/01 11:44:27;;;;;;;16.70;11.38;;;7.40;99.90;;;;;;5058716;28;20275;-83
2021/03/01 11:46:53;;;;;;;18.70;11.30;;;7.30;99.90;;;;;;5059591;28;20254;-83
2021/03/01 11:49:20;;;;;;;20.17;12.45;;;7.40;99.90;;;;;;5051189;28;20218;-82
2021/03/01 11:51:46;;;;;;;15.35;12.23;;;7.60;99.90;;;;;;5059684;28;20188;-82
2021/03/01 11:54:12;;;;;;;16.10;11.70;;;7.50;99.90;;;;;;5059277;28;20220;-83
2021/03/01 11:56:40;;;;;;;24.70;12.32;;;7.20;99.90;;;;;;5058565;28;20208;-82
2021/03/01 11:59:06;;;;;;;17.83;11.65;;;7.30;99.90;;;;;;5058259;28;20207;-83
2021/03/01 12:01:33;;;;;;;16.80;12.23;;;7.10;99.90;;;;;;5057569;28;20203;-81
2021/03/01 12:03:59;;;;;;;17.55;12.32;;;7.20;99.90;;;;;;5057855;28;20255;-83
2021/03/01 12:06:26;;;;;;;17.90;12.32;;;7.50;99.90;;;;;;5057156;28;20290;-82
2021/03/01 12:08:52;;;;;;;21.17;14.80;;;7.60;99.90;;;;;;5057155;28;20287;-82
2021/03/01 12:11:18;;;;;;;18.40;12.45;;;7.40;99.90;;;;;;5057114;28;20196;-84
2021/03/01 12:13:45;;;;;;;19.27;12.57;;;7.50;99.90;;;;;;5055414;28;20227;-84
2021/03/01 12:16:11;;;;;;;25.33;13.25;;;7.40;99.90;;;;;;5043839;28;20204;-84
2021/03/01 12:18:37;;;;;;;19.35;13.73;;;7.30;99.90;;;;;;5044042;28;20208;-83
2021/03/01 12:21:03;;;;;;;16.10;11.75;;;7.50;99.90;;;;;;5044121;28;20203;-83
2021/03/01 12:23:31;;;;;;;20.08;13.02;;;7.70;99.90;;;;;;5044024;28;20207;-84
2021/03/01 12:25:57;;;;;;;15.88;11.85;;;7.80;99.90;;;;;;5044714;28;20199;-82
2021/03/01 12:28:23;;;;;;;18.70;12.82;;;7.60;99.90;;;;;;5043292;28;20573;-82
2021/03/01 12:30:49;;;;;;;18.35;12.95;;;7.40;99.90;;;;;;5044538;28;20204;-82
2021/03/01 12:33:15;;;;;;;20.70;12.10;;;7.40;99.90;;;;;;5042857;28;20219;-83
2021/03/01 12:35:41;;;;;;;16.48;11.00;;;7.50;99.90;;;;;;5043009;28;20211;-82
2021/03/01 12:38:07;;;;;;;20.13;13.80;;;7.60;99.90;;;;;;5043932;28;20278;-83
2021/03/01 12:40:35;;;;;;;18.98;12.57;;;7.70;99.90;;;;;;5043104;28;20218;-82
2021/03/01 12:43:02;;;;;;;15.05;10.95;;;7.60;99.90;;;;;;5048102;28;20200;-83
2021/03/01 12:45:29;;;;;;;17.23;11.77;;;7.20;99.90;;;;;;5045328;28;20226;-82
2021/03/01 12:47:55;;;;;;;16.85;12.40;;;7.50;99.90;;;;;;5046279;28;20228;-82